sensor_id;sensor_type;location;lat;lon;timestamp;temperature;humidity
36586;DHT22;22591;48.314;11.562;2024-03-22T00:00:15;6.50;99.90
36586;DHT22;22591;48.314;11.562;2024-03-22T00:02:56;6.40;99.90
36586;DHT22;22591;48.314;11.562;2024-03-22T00:05:48;6.40;99.90
36586;DHT22;22591;48.314;11.562;2024-03-22T00:08:15;6.30;99.90
36586;DHT22;22591;48.314;11.562;2024-03-22T00:10:44;6.30;99.90
36586;DHT22;22591;48.314;11.562;2024-03-22T00:13:14;6.20;99.90
36586;DHT22;22591;48.314;11.562;2024-03-22T00:15:44;6.20;99.90
36586;DHT22;22591;48.314;11.562;2024-03-22T00:18:15;6.00;99.90
36586;DHT22;22591;48.314;11.562;2024-03-22T00:20:43;5.90;99.90
36586;DHT22;22591;48.314;11.562;2024-03-22T00:23:12;5.80;99.90
36586;DHT22;22591;48.314;11.562;2024-03-22T00:25:41;5.90;99.90
36586;DHT22;22591;48.314;11.562;2024-03-22T00:28:10;6.00;99.90
36586;DHT22;22591;48.314;11.562;2024-03-22T00:30:40;6.00;99.90
36586;DHT22;22591;48.314;11.562;2024-03-22T00:33:09;6.10;99.90
36586;DHT22;22591;48.314;11.562;2024-03-22T00:35:40;6.10;99.90
36586;DHT22;22591;48.314;11.562;2024-03-22T00:38:08;6.20;99.90
36586;DHT22;22591;48.314;11.562;2024-03-22T00:40:37;6.20;99.90
36586;DHT22;22591;48.314;11.562;2024-03-22T00:43:04;6.10;99.90
36586;DHT22;22591;48.314;11.562;2024-03-22T00:45:32;6.10;99.90
36586;DHT22;22591;48.314;11.562;2024-03-22T00:48:01;6.10;99.90
36586;DHT22;22591;48.314;11.562;2024-03-22T00:50:39;6.10;99.90
36586;DHT22;22591;48.314;11.562;2024-03-22T00:53:04;6.10;99.90
36586;DHT22;22591;48.314;11.562;2024-03-22T00:55:31;6.10;99.90
36586;DHT22;22591;48.314;11.562;2024-03-22T00:57:57;6.00;99.90
36586;DHT22;22591;48.314;11.562;2024-03-22T01:00:23;6.00;99.90
36586;DHT22;22591;48.314;11.562;2024-03-22T01:02:50;6.00;99.90
36586;DHT22;22591;48.314;11.562;2024-03-22T01:05:16;6.00;99.90
36586;DHT22;22591;48.314;11.562;2024-03-22T01:07:42;6.10;99.90
36586;DHT22;22591;48.314;11.562;2024-03-22T01:10:08;6.10;99.90
36586;DHT22;22591;48.314;11.562;2024-03-22T01:12:33;6.10;99.90
36586;DHT22;22591;48.314;11.562;2024-03-22T01:14:59;6.00;99.90
36586;DHT22;22591;48.314;11.562;2024-03-22T01:17:25;6.00;99.90
36586;DHT22;22591;48.314;11.562;2024-03-22T01:19:51;5.90;99.90
36586;DHT22;22591;48.314;11.562;2024-03-22T01:22:17;5.90;99.90
36586;DHT22;22591;48.314;11.562;2024-03-22T01:24:43;5.80;99.90
36586;DHT22;22591;48.314;11.562;2024-03-22T01:27:09;5.80;99.90
36586;DHT22;22591;48.314;11.562;2024-03-22T01:29:34;5.90;99.90
36586;DHT22;22591;48.314;11.562;2024-03-22T01:32:02;5.90;99.90
36586;DHT22;22591;48.314;11.562;2024-03-22T01:34:27;5.90;99.90
36586;DHT22;22591;48.314;11.562;2024-03-22T01:36:53;5.90;99.90
36586;DHT22;22591;48.314;11.562;2024-03-22T01:39:20;5.80;99.90
36586;DHT22;22591;48.314;11.562;2024-03-22T01:41:49;5.80;99.90
36586;DHT22;22591;48.314;11.562;2024-03-22T01:44:15;5.80;99.90
36586;DHT22;22591;48.314;11.562;2024-03-22T01:46:41;5.90;99.90
36586;DHT22;22591;48.314;11.562;2024-03-22T01:49:12;5.90;99.90
36586;DHT22;22591;48.314;11.562;2024-03-22T01:51:40;5.80;99.90
36586;DHT22;22591;48.314;11.562;2024-03-22T01:54:08;5.70;99.90
36586;DHT22;22591;48.314;11.562;2024-03-22T01:56:36;5.80;99.90
36586;DHT22;22591;48.314;11.562;2024-03-22T01:59:04;5.80;99.90
36586;DHT22;22591;48.314;11.562;2024-03-22T02:01:30;5.80;99.90
36586;DHT22;22591;48.314;11.562;2024-03-22T02:03:55;5.70;99.90
36586;DHT22;22591;48.314;11.562;2024-03-22T02:06:21;5.70;99.90
36586;DHT22;22591;48.314;11.562;2024-03-22T02:08:47;5.70;99.90
36586;DHT22;22591;48.314;11.562;2024-03-22T02:11:14;5.70;99.90
36586;DHT22;22591;48.314;11.562;2024-03-22T02:13:42;5.80;99.90
36586;DHT22;22591;48.314;11.562;2024-03-22T02:16:13;5.70;99.90
36586;DHT22;22591;48.314;11.562;2024-03-22T02:18:50;5.60;99.90
36586;DHT22;22591;48.314;11.562;2024-03-22T02:21:18;5.70;99.90
36586;DHT22;22591;48.314;11.562;2024-03-22T02:23:47;5.50;99.90
36586;DHT22;22591;48.314;11.562;2024-03-22T02:26:15;5.50;99.90
36586;DHT22;22591;48.314;11.562;2024-03-22T02:28:44;5.50;99.90
36586;DHT22;22591;48.314;11.562;2024-03-22T02:31:14;5.60;99.90
36586;DHT22;22591;48.314;11.562;2024-03-22T02:33:42;5.60;99.90
36586;DHT22;22591;48.314;11.562;2024-03-22T02:36:11;5.60;99.90
36586;DHT22;22591;48.314;11.562;2024-03-22T02:38:38;5.50;99.90
36586;DHT22;22591;48.314;11.562;2024-03-22T02:41:05;5.60;99.90
36586;DHT22;22591;48.314;11.562;2024-03-22T02:43:42;5.50;99.90
36586;DHT22;22591;48.314;11.562;2024-03-22T02:46:10;5.50;99.90
36586;DHT22;22591;48.314;11.562;2024-03-22T02:48:39;5.50;99.90
36586;DHT22;22591;48.314;11.562;2024-03-22T02:51:07;5.40;99.90
36586;DHT22;22591;48.314;11.562;2024-03-22T02:53:35;5.30;99.90
36586;DHT22;22591;48.314;11.562;2024-03-22T02:56:03;5.10;99.90
36586;DHT22;22591;48.314;11.562;2024-03-22T02:58:32;5.10;99.90
36586;DHT22;22591;48.314;11.562;2024-03-22T03:01:03;5.00;99.90
36586;DHT22;22591;48.314;11.562;2024-03-22T03:03:33;4.70;99.90
36586;DHT22;22591;48.314;11.562;2024-03-22T03:06:01;4.70;99.90
36586;DHT22;22591;48.314;11.562;2024-03-22T03:08:29;4.80;99.90
36586;DHT22;22591;48.314;11.562;2024-03-22T03:10:56;4.80;99.90
36586;DHT22;22591;48.314;11.562;2024-03-22T03:13:22;4.90;99.90
36586;DHT22;22591;48.314;11.562;2024-03-22T03:15:48;5.00;99.90
36586;DHT22;22591;48.314;11.562;2024-03-22T03:18:13;5.10;99.90
36586;DHT22;22591;48.314;11.562;2024-03-22T03:20:39;5.20;99.90
36586;DHT22;22591;48.314;11.562;2024-03-22T03:23:05;5.20;99.90
36586;DHT22;22591;48.314;11.562;2024-03-22T03:25:30;5.20;99.90
36586;DHT22;22591;48.314;11.562;2024-03-22T03:27:56;5.30;99.90
36586;DHT22;22591;48.314;11.562;2024-03-22T03:30:21;5.10;99.90
36586;DHT22;22591;48.314;11.562;2024-03-22T03:32:47;5.20;99.90
36586;DHT22;22591;48.314;11.562;2024-03-22T03:35:13;5.10;99.90
36586;DHT22;22591;48.314;11.562;2024-03-22T03:37:38;5.00;99.90
36586;DHT22;22591;48.314;11.562;2024-03-22T03:40:06;5.00;99.90
36586;DHT22;22591;48.314;11.562;2024-03-22T03:42:39;4.90;99.90
36586;DHT22;22591;48.314;11.562;2024-03-22T03:45:09;4.70;99.90
36586;DHT22;22591;48.314;11.562;2024-03-22T03:47:43;4.70;99.90
36586;DHT22;22591;48.314;11.562;2024-03-22T03:50:13;4.70;99.90
36586;DHT22;22591;48.314;11.562;2024-03-22T03:52:42;4.70;99.90
36586;DHT22;22591;48.314;11.562;2024-03-22T03:55:10;4.70;99.90
36586;DHT22;22591;48.314;11.562;2024-03-22T03:57:40;4.60;99.90
36586;DHT22;22591;48.314;11.562;2024-03-22T04:00:11;4.60;99.90
36586;DHT22;22591;48.314;11.562;2024-03-22T04:02:39;4.70;99.90
36586;DHT22;22591;48.314;11.562;2024-03-22T04:05:08;4.80;99.90
36586;DHT22;22591;48.314;11.562;2024-03-22T04:07:37;4.80;99.90
36586;DHT22;22591;48.314;11.562;2024-03-22T04:10:06;4.70;99.90
36586;DHT22;22591;48.314;11.562;2024-03-22T04:12:35;4.70;99.90
36586;DHT22;22591;48.314;11.562;2024-03-22T04:15:02;4.60;99.90
36586;DHT22;22591;48.314;11.562;2024-03-22T04:17:27;4.60;99.90
36586;DHT22;22591;48.314;11.562;2024-03-22T04:19:53;4.70;99.90
36586;DHT22;22591;48.314;11.562;2024-03-22T04:22:18;4.80;99.90
36586;DHT22;22591;48.314;11.562;2024-03-22T04:24:44;4.80;99.90
36586;DHT22;22591;48.314;11.562;2024-03-22T04:27:10;4.60;99.90
36586;DHT22;22591;48.314;11.562;2024-03-22T04:29:35;4.60;99.90
36586;DHT22;22591;48.314;11.562;2024-03-22T04:32:01;4.50;99.90
36586;DHT22;22591;48.314;11.562;2024-03-22T04:34:27;4.60;99.90
36586;DHT22;22591;48.314;11.562;2024-03-22T04:36:52;4.60;99.90
36586;DHT22;22591;48.314;11.562;2024-03-22T04:39:24;4.40;99.90
36586;DHT22;22591;48.314;11.562;2024-03-22T04:41:50;4.30;99.90
36586;DHT22;22591;48.314;11.562;2024-03-22T04:44:15;4.30;99.90
36586;DHT22;22591;48.314;11.562;2024-03-22T04:46:42;4.30;99.90
36586;DHT22;22591;48.314;11.562;2024-03-22T04:49:09;4.30;99.90
36586;DHT22;22591;48.314;11.562;2024-03-22T04:51:34;4.30;99.90
36586;DHT22;22591;48.314;11.562;2024-03-22T04:54:01;4.40;99.90
36586;DHT22;22591;48.314;11.562;2024-03-22T04:56:27;4.40;99.90
36586;DHT22;22591;48.314;11.562;2024-03-22T04:58:54;4.60;99.90
36586;DHT22;22591;48.314;11.562;2024-03-22T05:01:22;4.70;99.90
36586;DHT22;22591;48.314;11.562;2024-03-22T05:03:50;4.80;99.90
36586;DHT22;22591;48.314;11.562;2024-03-22T05:06:17;5.00;99.90
36586;DHT22;22591;48.314;11.562;2024-03-22T05:08:43;5.10;99.90
36586;DHT22;22591;48.314;11.562;2024-03-22T05:11:08;5.20;99.90
36586;DHT22;22591;48.314;11.562;2024-03-22T05:13:34;5.20;99.90
36586;DHT22;22591;48.314;11.562;2024-03-22T05:16:00;5.20;99.90
36586;DHT22;22591;48.314;11.562;2024-03-22T05:18:25;5.20;99.90
36586;DHT22;22591;48.314;11.562;2024-03-22T05:20:51;5.20;99.90
36586;DHT22;22591;48.314;11.562;2024-03-22T05:23:17;5.20;99.90
36586;DHT22;22591;48.314;11.562;2024-03-22T05:25:43;5.20;99.90
36586;DHT22;22591;48.314;11.562;2024-03-22T05:28:09;5.20;99.90
36586;DHT22;22591;48.314;11.562;2024-03-22T05:30:35;5.10;99.90
36586;DHT22;22591;48.314;11.562;2024-03-22T05:33:02;5.10;99.90
36586;DHT22;22591;48.314;11.562;2024-03-22T05:35:28;5.10;99.90
36586;DHT22;22591;48.314;11.562;2024-03-22T05:37:53;5.00;99.90
36586;DHT22;22591;48.314;11.562;2024-03-22T05:40:20;5.10;99.90
36586;DHT22;22591;48.314;11.562;2024-03-22T05:42:46;5.00;99.90
36586;DHT22;22591;48.314;11.562;2024-03-22T05:45:12;5.00;99.90
36586;DHT22;22591;48.314;11.562;2024-03-22T05:47:37;5.00;99.90
36586;DHT22;22591;48.314;11.562;2024-03-22T05:50:03;5.00;99.90
36586;DHT22;22591;48.314;11.562;2024-03-22T05:52:33;4.90;99.90
36586;DHT22;22591;48.314;11.562;2024-03-22T05:55:00;4.80;99.90
36586;DHT22;22591;48.314;11.562;2024-03-22T05:57:27;4.70;99.90
36586;DHT22;22591;48.314;11.562;2024-03-22T05:59:53;4.90;99.90
36586;DHT22;22591;48.314;11.562;2024-03-22T06:02:19;5.00;99.90
36586;DHT22;22591;48.314;11.562;2024-03-22T06:04:46;5.00;99.90
36586;DHT22;22591;48.314;11.562;2024-03-22T06:07:14;4.90;99.90
36586;DHT22;22591;48.314;11.562;2024-03-22T06:09:43;5.00;99.90
36586;DHT22;22591;48.314;11.562;2024-03-22T06:12:13;5.10;99.90
36586;DHT22;22591;48.314;11.562;2024-03-22T06:14:40;5.20;99.90
36586;DHT22;22591;48.314;11.562;2024-03-22T06:17:07;5.20;99.90
36586;DHT22;22591;48.314;11.562;2024-03-22T06:19:33;5.30;99.90
36586;DHT22;22591;48.314;11.562;2024-03-22T06:22:01;5.30;99.90
36586;DHT22;22591;48.314;11.562;2024-03-22T06:24:30;5.30;99.90
36586;DHT22;22591;48.314;11.562;2024-03-22T06:26:58;5.40;99.90
36586;DHT22;22591;48.314;11.562;2024-03-22T06:29:24;5.50;99.90
36586;DHT22;22591;48.314;11.562;2024-03-22T06:31:50;5.60;99.90
36586;DHT22;22591;48.314;11.562;2024-03-22T06:34:19;5.60;99.90
36586;DHT22;22591;48.314;11.562;2024-03-22T06:36:47;5.70;99.90
36586;DHT22;22591;48.314;11.562;2024-03-22T06:39:13;5.70;99.90
36586;DHT22;22591;48.314;11.562;2024-03-22T06:41:42;5.80;99.90
36586;DHT22;22591;48.314;11.562;2024-03-22T06:44:08;5.80;99.90
36586;DHT22;22591;48.314;11.562;2024-03-22T06:46:39;5.90;99.90
36586;DHT22;22591;48.314;11.562;2024-03-22T06:49:05;6.00;99.90
36586;DHT22;22591;48.314;11.562;2024-03-22T06:51:32;6.00;99.90
36586;DHT22;22591;48.314;11.562;2024-03-22T06:53:59;6.10;99.90
36586;DHT22;22591;48.314;11.562;2024-03-22T06:56:25;6.10;99.90
36586;DHT22;22591;48.314;11.562;2024-03-22T06:58:53;6.10;99.90
36586;DHT22;22591;48.314;11.562;2024-03-22T07:01:20;6.20;99.90
36586;DHT22;22591;48.314;11.562;2024-03-22T07:03:47;6.30;99.90
36586;DHT22;22591;48.314;11.562;2024-03-22T07:06:14;6.30;99.90
36586;DHT22;22591;48.314;11.562;2024-03-22T07:08:43;6.40;99.90
36586;DHT22;22591;48.314;11.562;2024-03-22T07:11:10;6.50;99.90
36586;DHT22;22591;48.314;11.562;2024-03-22T07:13:37;6.70;99.90
36586;DHT22;22591;48.314;11.562;2024-03-22T07:16:05;6.80;99.90
36586;DHT22;22591;48.314;11.562;2024-03-22T07:18:33;6.90;99.90
36586;DHT22;22591;48.314;11.562;2024-03-22T07:21:00;6.90;99.90
36586;DHT22;22591;48.314;11.562;2024-03-22T07:23:29;7.00;99.90
36586;DHT22;22591;48.314;11.562;2024-03-22T07:25:56;7.00;99.90
36586;DHT22;22591;48.314;11.562;2024-03-22T07:28:23;7.00;99.90
36586;DHT22;22591;48.314;11.562;2024-03-22T07:30:53;7.10;99.90
36586;DHT22;22591;48.314;11.562;2024-03-22T07:33:24;7.20;99.90
36586;DHT22;22591;48.314;11.562;2024-03-22T07:35:50;7.30;99.90
36586;DHT22;22591;48.314;11.562;2024-03-22T07:38:20;7.30;99.90
36586;DHT22;22591;48.314;11.562;2024-03-22T07:40:46;7.50;99.90
36586;DHT22;22591;48.314;11.562;2024-03-22T07:43:14;7.50;99.90
36586;DHT22;22591;48.314;11.562;2024-03-22T07:45:44;7.60;99.90
36586;DHT22;22591;48.314;11.562;2024-03-22T07:48:11;7.60;99.90
36586;DHT22;22591;48.314;11.562;2024-03-22T07:50:39;7.70;99.90
36586;DHT22;22591;48.314;11.562;2024-03-22T07:53:05;7.60;99.90
36586;DHT22;22591;48.314;11.562;2024-03-22T07:55:33;7.70;99.90
36586;DHT22;22591;48.314;11.562;2024-03-22T07:58:00;7.80;99.90
36586;DHT22;22591;48.314;11.562;2024-03-22T08:00:26;7.90;99.90
36586;DHT22;22591;48.314;11.562;2024-03-22T08:02:54;8.10;99.90
36586;DHT22;22591;48.314;11.562;2024-03-22T08:05:20;8.40;99.90
36586;DHT22;22591;48.314;11.562;2024-03-22T08:07:48;8.80;99.90
36586;DHT22;22591;48.314;11.562;2024-03-22T08:10:14;8.90;99.90
36586;DHT22;22591;48.314;11.562;2024-03-22T08:12:43;9.30;99.90
36586;DHT22;22591;48.314;11.562;2024-03-22T08:15:09;9.60;99.90
36586;DHT22;22591;48.314;11.562;2024-03-22T08:17:38;9.90;99.90
36586;DHT22;22591;48.314;11.562;2024-03-22T08:20:04;10.00;99.90
36586;DHT22;22591;48.314;11.562;2024-03-22T08:22:31;10.20;99.90
36586;DHT22;22591;48.314;11.562;2024-03-22T08:24:59;10.40;99.90
36586;DHT22;22591;48.314;11.562;2024-03-22T08:27:27;10.30;99.90
36586;DHT22;22591;48.314;11.562;2024-03-22T08:29:54;10.20;99.90
36586;DHT22;22591;48.314;11.562;2024-03-22T08:32:22;10.50;99.90
36586;DHT22;22591;48.314;11.562;2024-03-22T08:34:49;10.30;99.90
36586;DHT22;22591;48.314;11.562;2024-03-22T08:37:15;10.30;99.90
36586;DHT22;22591;48.314;11.562;2024-03-22T08:39:41;10.30;99.90
36586;DHT22;22591;48.314;11.562;2024-03-22T08:42:07;10.70;99.90
36586;DHT22;22591;48.314;11.562;2024-03-22T08:44:36;10.80;99.90
36586;DHT22;22591;48.314;11.562;2024-03-22T08:47:04;11.00;99.90
36586;DHT22;22591;48.314;11.562;2024-03-22T08:49:31;11.10;99.90
36586;DHT22;22591;48.314;11.562;2024-03-22T08:51:56;11.20;99.90
36586;DHT22;22591;48.314;11.562;2024-03-22T08:54:23;11.10;99.90
36586;DHT22;22591;48.314;11.562;2024-03-22T08:56:49;11.00;99.90
36586;DHT22;22591;48.314;11.562;2024-03-22T08:59:15;11.00;99.90
36586;DHT22;22591;48.314;11.562;2024-03-22T09:01:42;11.10;99.90
36586;DHT22;22591;48.314;11.562;2024-03-22T09:04:09;11.20;99.90
36586;DHT22;22591;48.314;11.562;2024-03-22T09:06:37;11.30;99.90
36586;DHT22;22591;48.314;11.562;2024-03-22T09:09:03;11.40;99.90
36586;DHT22;22591;48.314;11.562;2024-03-22T09:11:30;11.50;99.90
36586;DHT22;22591;48.314;11.562;2024-03-22T09:13:58;11.60;99.90
36586;DHT22;22591;48.314;11.562;2024-03-22T09:16:25;11.90;99.90
36586;DHT22;22591;48.314;11.562;2024-03-22T09:18:52;11.90;99.90
36586;DHT22;22591;48.314;11.562;2024-03-22T09:21:19;12.10;99.90
36586;DHT22;22591;48.314;11.562;2024-03-22T09:23:44;12.30;99.90
36586;DHT22;22591;48.314;11.562;2024-03-22T09:26:11;12.70;99.90
36586;DHT22;22591;48.314;11.562;2024-03-22T09:28:38;12.60;99.90
36586;DHT22;22591;48.314;11.562;2024-03-22T09:31:07;12.80;99.90
36586;DHT22;22591;48.314;11.562;2024-03-22T09:33:37;12.60;99.90
36586;DHT22;22591;48.314;11.562;2024-03-22T09:36:04;12.40;99.90
36586;DHT22;22591;48.314;11.562;2024-03-22T09:38:30;12.50;99.90
36586;DHT22;22591;48.314;11.562;2024-03-22T09:40:57;12.70;99.90
36586;DHT22;22591;48.314;11.562;2024-03-22T09:43:25;12.80;99.90
36586;DHT22;22591;48.314;11.562;2024-03-22T09:45:57;12.60;99.90
36586;DHT22;22591;48.314;11.562;2024-03-22T09:48:38;13.00;99.90
36586;DHT22;22591;48.314;11.562;2024-03-22T09:51:06;13.10;99.90
36586;DHT22;22591;48.314;11.562;2024-03-22T09:53:34;13.20;99.90
36586;DHT22;22591;48.314;11.562;2024-03-22T09:56:03;13.30;99.90
36586;DHT22;22591;48.314;11.562;2024-03-22T09:58:29;13.30;99.90
36586;DHT22;22591;48.314;11.562;2024-03-22T10:00:58;13.30;99.90
36586;DHT22;22591;48.314;11.562;2024-03-22T10:03:26;13.10;99.90
36586;DHT22;22591;48.314;11.562;2024-03-22T10:05:54;13.30;99.90
36586;DHT22;22591;48.314;11.562;2024-03-22T10:08:23;13.10;99.90
36586;DHT22;22591;48.314;11.562;2024-03-22T10:10:48;13.20;99.90
36586;DHT22;22591;48.314;11.562;2024-03-22T10:13:15;13.30;99.90
36586;DHT22;22591;48.314;11.562;2024-03-22T10:15:42;13.30;99.90
36586;DHT22;22591;48.314;11.562;2024-03-22T10:18:10;13.00;99.90
36586;DHT22;22591;48.314;11.562;2024-03-22T10:20:35;13.10;99.90
36586;DHT22;22591;48.314;11.562;2024-03-22T10:23:04;13.10;99.90
36586;DHT22;22591;48.314;11.562;2024-03-22T10:25:30;13.30;99.90
36586;DHT22;22591;48.314;11.562;2024-03-22T10:27:58;13.30;99.90
36586;DHT22;22591;48.314;11.562;2024-03-22T10:30:26;13.70;99.90
36586;DHT22;22591;48.314;11.562;2024-03-22T10:32:55;13.40;99.90
36586;DHT22;22591;48.314;11.562;2024-03-22T10:35:21;13.60;99.90
36586;DHT22;22591;48.314;11.562;2024-03-22T10:37:50;13.50;99.90
36586;DHT22;22591;48.314;11.562;2024-03-22T10:40:17;13.30;99.90
36586;DHT22;22591;48.314;11.562;2024-03-22T10:42:43;13.40;99.90
36586;DHT22;22591;48.314;11.562;2024-03-22T10:45:12;13.40;99.90
36586;DHT22;22591;48.314;11.562;2024-03-22T10:47:41;13.70;99.90
36586;DHT22;22591;48.314;11.562;2024-03-22T10:50:18;13.60;99.90
36586;DHT22;22591;48.314;11.562;2024-03-22T10:53:01;13.50;99.90
36586;DHT22;22591;48.314;11.562;2024-03-22T10:55:37;13.60;99.90
36586;DHT22;22591;48.314;11.562;2024-03-22T10:58:04;14.00;99.90
36586;DHT22;22591;48.314;11.562;2024-03-22T11:00:30;14.10;99.90
36586;DHT22;22591;48.314;11.562;2024-03-22T11:03:02;14.10;99.90
36586;DHT22;22591;48.314;11.562;2024-03-22T11:05:28;14.30;99.90
36586;DHT22;22591;48.314;11.562;2024-03-22T11:10:29;14.40;99.90
36586;DHT22;22591;48.314;11.562;2024-03-22T11:13:00;14.30;99.90
36586;DHT22;22591;48.314;11.562;2024-03-22T11:15:29;14.30;98.50
36586;DHT22;22591;48.314;11.562;2024-03-22T11:17:56;14.80;99.10
36586;DHT22;22591;48.314;11.562;2024-03-22T11:20:24;14.70;98.00
36586;DHT22;22591;48.314;11.562;2024-03-22T11:22:52;14.40;97.20
36586;DHT22;22591;48.314;11.562;2024-03-22T11:25:19;14.40;96.60
36586;DHT22;22591;48.314;11.562;2024-03-22T11:27:48;14.40;97.10
36586;DHT22;22591;48.314;11.562;2024-03-22T11:30:16;14.50;97.30
36586;DHT22;22591;48.314;11.562;2024-03-22T11:32:43;14.30;97.20
36586;DHT22;22591;48.314;11.562;2024-03-22T11:35:15;14.40;96.80
36586;DHT22;22591;48.314;11.562;2024-03-22T11:37:45;14.60;97.20
36586;DHT22;22591;48.314;11.562;2024-03-22T11:40:12;14.80;96.30
36586;DHT22;22591;48.314;11.562;2024-03-22T11:42:45;14.80;95.90
36586;DHT22;22591;48.314;11.562;2024-03-22T11:45:17;14.70;96.40
36586;DHT22;22591;48.314;11.562;2024-03-22T11:47:49;14.50;96.90
36586;DHT22;22591;48.314;11.562;2024-03-22T11:50:16;14.40;97.60
36586;DHT22;22591;48.314;11.562;2024-03-22T11:52:42;14.30;97.90
36586;DHT22;22591;48.314;11.562;2024-03-22T11:55:10;14.40;97.00
36586;DHT22;22591;48.314;11.562;2024-03-22T11:57:36;14.50;98.40
36586;DHT22;22591;48.314;11.562;2024-03-22T12:00:03;14.50;98.00
36586;DHT22;22591;48.314;11.562;2024-03-22T12:02:38;14.50;98.30
36586;DHT22;22591;48.314;11.562;2024-03-22T12:05:04;14.40;98.40
36586;DHT22;22591;48.314;11.562;2024-03-22T12:07:34;14.20;99.10
36586;DHT22;22591;48.314;11.562;2024-03-22T12:10:02;14.40;99.00
36586;DHT22;22591;48.314;11.562;2024-03-22T12:12:29;14.30;99.00
36586;DHT22;22591;48.314;11.562;2024-03-22T12:14:56;14.50;98.70
36586;DHT22;22591;48.314;11.562;2024-03-22T12:17:25;14.60;99.00
36586;DHT22;22591;48.314;11.562;2024-03-22T12:19:52;14.70;99.20
36586;DHT22;22591;48.314;11.562;2024-03-22T12:22:19;14.60;99.70
36586;DHT22;22591;48.314;11.562;2024-03-22T12:24:45;14.80;99.20
36586;DHT22;22591;48.314;11.562;2024-03-22T12:27:11;14.90;99.80
36586;DHT22;22591;48.314;11.562;2024-03-22T12:29:38;15.00;98.90
36586;DHT22;22591;48.314;11.562;2024-03-22T12:32:08;15.10;99.60
36586;DHT22;22591;48.314;11.562;2024-03-22T12:34:35;15.20;97.70
36586;DHT22;22591;48.314;11.562;2024-03-22T12:37:06;14.90;96.90
36586;DHT22;22591;48.314;11.562;2024-03-22T12:39:33;15.00;98.40
36586;DHT22;22591;48.314;11.562;2024-03-22T12:42:01;15.50;98.30
36586;DHT22;22591;48.314;11.562;2024-03-22T12:44:28;15.50;96.80
36586;DHT22;22591;48.314;11.562;2024-03-22T12:46:54;15.30;96.70
36586;DHT22;22591;48.314;11.562;2024-03-22T12:49:21;15.30;96.70
36586;DHT22;22591;48.314;11.562;2024-03-22T12:51:47;15.40;97.00
36586;DHT22;22591;48.314;11.562;2024-03-22T12:54:15;15.30;97.10
36586;DHT22;22591;48.314;11.562;2024-03-22T12:56:45;15.20;97.00
36586;DHT22;22591;48.314;11.562;2024-03-22T12:59:13;15.20;97.00
36586;DHT22;22591;48.314;11.562;2024-03-22T13:01:39;15.40;97.60
36586;DHT22;22591;48.314;11.562;2024-03-22T13:04:05;15.10;97.40
36586;DHT22;22591;48.314;11.562;2024-03-22T13:06:32;15.10;97.60
36586;DHT22;22591;48.314;11.562;2024-03-22T13:09:00;15.20;97.10
36586;DHT22;22591;48.314;11.562;2024-03-22T13:11:27;15.20;97.00
36586;DHT22;22591;48.314;11.562;2024-03-22T13:13:54;15.20;97.10
36586;DHT22;22591;48.314;11.562;2024-03-22T13:16:22;15.50;97.20
36586;DHT22;22591;48.314;11.562;2024-03-22T13:18:51;15.80;96.10
36586;DHT22;22591;48.314;11.562;2024-03-22T13:21:17;16.00;95.30
36586;DHT22;22591;48.314;11.562;2024-03-22T13:23:45;16.10;94.50
36586;DHT22;22591;48.314;11.562;2024-03-22T13:26:12;16.00;95.10
36586;DHT22;22591;48.314;11.562;2024-03-22T13:28:38;15.80;95.20
36586;DHT22;22591;48.314;11.562;2024-03-22T13:31:06;15.80;96.30
36586;DHT22;22591;48.314;11.562;2024-03-22T13:33:33;15.80;94.40
36586;DHT22;22591;48.314;11.562;2024-03-22T13:36:01;16.20;95.30
36586;DHT22;22591;48.314;11.562;2024-03-22T13:38:30;16.10;94.70
36586;DHT22;22591;48.314;11.562;2024-03-22T13:40:57;15.90;94.50
36586;DHT22;22591;48.314;11.562;2024-03-22T13:43:27;16.00;96.50
36586;DHT22;22591;48.314;11.562;2024-03-22T13:45:53;16.20;95.60
36586;DHT22;22591;48.314;11.562;2024-03-22T13:48:21;16.00;94.80
36586;DHT22;22591;48.314;11.562;2024-03-22T13:50:53;16.10;94.70
36586;DHT22;22591;48.314;11.562;2024-03-22T13:53:19;16.00;94.40
36586;DHT22;22591;48.314;11.562;2024-03-22T13:55:46;15.90;95.00
36586;DHT22;22591;48.314;11.562;2024-03-22T13:58:11;15.90;95.10
36586;DHT22;22591;48.314;11.562;2024-03-22T14:00:38;15.80;95.50
36586;DHT22;22591;48.314;11.562;2024-03-22T14:03:03;16.30;94.70
36586;DHT22;22591;48.314;11.562;2024-03-22T14:05:30;15.90;93.50
36586;DHT22;22591;48.314;11.562;2024-03-22T14:07:57;15.90;93.50
36586;DHT22;22591;48.314;11.562;2024-03-22T14:10:23;15.80;94.10
36586;DHT22;22591;48.314;11.562;2024-03-22T14:12:50;16.10;94.00
36586;DHT22;22591;48.314;11.562;2024-03-22T14:15:16;15.90;94.90
36586;DHT22;22591;48.314;11.562;2024-03-22T14:17:42;15.90;95.20
36586;DHT22;22591;48.314;11.562;2024-03-22T14:20:07;15.70;95.30
36586;DHT22;22591;48.314;11.562;2024-03-22T14:22:42;15.70;95.30
36586;DHT22;22591;48.314;11.562;2024-03-22T14:25:08;15.70;95.50
36586;DHT22;22591;48.314;11.562;2024-03-22T14:27:35;15.80;95.20
36586;DHT22;22591;48.314;11.562;2024-03-22T14:30:01;15.90;94.70
36586;DHT22;22591;48.314;11.562;2024-03-22T14:32:33;16.10;94.50
36586;DHT22;22591;48.314;11.562;2024-03-22T14:34:59;15.90;95.00
36586;DHT22;22591;48.314;11.562;2024-03-22T14:37:24;16.10;94.60
36586;DHT22;22591;48.314;11.562;2024-03-22T14:39:50;15.70;94.80
36586;DHT22;22591;48.314;11.562;2024-03-22T14:42:16;15.90;94.40
36586;DHT22;22591;48.314;11.562;2024-03-22T14:44:41;15.80;94.60
36586;DHT22;22591;48.314;11.562;2024-03-22T14:47:07;15.70;95.80
36586;DHT22;22591;48.314;11.562;2024-03-22T14:49:33;15.80;95.90
36586;DHT22;22591;48.314;11.562;2024-03-22T14:51:58;16.40;94.90
36586;DHT22;22591;48.314;11.562;2024-03-22T14:54:24;16.10;96.10
36586;DHT22;22591;48.314;11.562;2024-03-22T14:56:50;16.00;95.90
36586;DHT22;22591;48.314;11.562;2024-03-22T14:59:15;16.10;96.00
36586;DHT22;22591;48.314;11.562;2024-03-22T15:01:41;16.00;96.00
36586;DHT22;22591;48.314;11.562;2024-03-22T15:04:07;15.90;95.50
36586;DHT22;22591;48.314;11.562;2024-03-22T15:06:33;16.10;95.40
36586;DHT22;22591;48.314;11.562;2024-03-22T15:08:58;15.90;95.80
36586;DHT22;22591;48.314;11.562;2024-03-22T15:11:30;16.10;95.10
36586;DHT22;22591;48.314;11.562;2024-03-22T15:13:55;16.10;95.40
36586;DHT22;22591;48.314;11.562;2024-03-22T15:16:22;15.90;95.50
36586;DHT22;22591;48.314;11.562;2024-03-22T15:18:48;16.10;95.50
36586;DHT22;22591;48.314;11.562;2024-03-22T15:21:14;16.40;95.50
36586;DHT22;22591;48.314;11.562;2024-03-22T15:23:39;16.30;95.90
36586;DHT22;22591;48.314;11.562;2024-03-22T15:26:06;16.50;95.40
36586;DHT22;22591;48.314;11.562;2024-03-22T15:28:31;16.60;94.90